Time;durP1;ratioP1;P1;durP2;ratioP2;P2;SDS_P1;SDS_P2;PMS_P1;PMS_P2;Temp;Humidity;BMP_temperature;BMP_pressure;BME280_temperature;BME280_humidity;BME280_pressure;Samples;Min_cycle;Max_cycle;Signal;HPM_P1;HPM_P2
2021/12/20 00:01:13;;;;;;;44.05;7.40;;;3.20;99.90;;;;;;4996754;28;20064;-75
2021/12/20 00:03:40;;;;;;;30.08;6.95;;;3.20;99.90;;;;;;5014540;28;20240;-75
2021/12/20 00:06:07;;;;;;;47.15;12.40;;;3.00;99.90;;;;;;4994687;28;20100;-76
2021/12/20 00:08:36;;;;;;;39.47;7.18;;;3.00;99.90;;;;;;5013499;28;20045;-75
2021/12/20 00:11:04;;;;;;;42.13;6.90;;;2.80;99.90;;;;;;4996605;28;20049;-75
2021/12/20 00:13:30;;;;;;;36.22;5.90;;;2.80;99.90;;;;;;4983076;28;20095;-75
2021/12/20 00:15:58;;;;;;;36.38;8.07;;;2.70;99.90;;;;;;4978839;28;20175;-75
2021/12/20 00:18:25;;;;;;;40.03;9.23;;;2.60;99.90;;;;;;4994380;28;20608;-74
2021/12/20 00:20:52;;;;;;;42.13;8.40;;;2.60;99.90;;;;;;4996647;28;20681;-75
2021/12/20 00:23:19;;;;;;;40.92;8.68;;;2.50;99.90;;;;;;4979736;28;20050;-75
2021/12/20 00:25:48;;;;;;;45.20;9.90;;;2.50;99.90;;;;;;4994018;28;20068;-74
2021/12/20 00:28:19;;;;;;;40.03;8.98;;;2.40;99.90;;;;;;4977342;28;20136;-74
2021/12/20 00:30:47;;;;;;;31.63;7.80;;;2.40;99.90;;;;;;4977058;28;20073;-73
2021/12/20 00:33:15;;;;;;;31.25;6.20;;;2.30;99.90;;;;;;4992655;28;20041;-74
2021/12/20 00:35:42;;;;;;;86.07;26.13;;;2.30;99.90;;;;;;4995915;28;20128;-73
2021/12/20 00:40:55;;;;;;;37.10;7.18;;;2.20;99.90;;;;;;4996713;28;20192;-75
2021/12/20 00:43:22;;;;;;;33.42;5.65;;;2.30;99.90;;;;;;4996241;28;20033;-75
2021/12/20 00:45:49;;;;;;;40.03;6.82;;;2.40;99.90;;;;;;4992190;28;20061;-74
2021/12/20 00:48:16;;;;;;;25.10;5.85;;;2.60;99.90;;;;;;4995638;28;20091;-75
2021/12/20 00:50:44;;;;;;;33.38;7.07;;;2.60;99.90;;;;;;5013904;28;20064;-74
2021/12/20 00:53:13;;;;;;;46.92;7.32;;;2.60;99.90;;;;;;5013923;28;20475;-74
2021/12/20 00:55:40;;;;;;;34.33;6.28;;;2.70;99.90;;;;;;5012282;28;20061;-74
2021/12/20 00:58:07;;;;;;;33.67;5.82;;;2.70;99.90;;;;;;4994588;28;20128;-75
2021/12/20 01:01:03;;;;;;;31.23;5.80;;;2.70;99.90;;;;;;5013712;28;20050;-74
2021/12/20 01:03:30;;;;;;;32.08;6.55;;;2.70;99.90;;;;;;4984836;28;20049;-74
2021/12/20 01:06:01;;;;;;;33.78;5.72;;;2.70;99.90;;;;;;4993579;28;20515;-75
2021/12/20 01:08:33;;;;;;;36.00;6.60;;;2.70;99.90;;;;;;4995835;28;20080;-75
2021/12/20 01:11:01;;;;;;;24.92;4.88;;;2.70;99.90;;;;;;4996014;28;20053;-75
2021/12/20 01:13:30;;;;;;;39.38;6.88;;;2.50;99.90;;;;;;4996452;28;20043;-75
2021/12/20 01:16:00;;;;;;;31.05;5.03;;;2.40;99.90;;;;;;4977674;28;20302;-74
2021/12/20 01:18:27;;;;;;;38.15;5.50;;;2.30;99.90;;;;;;4990309;28;20046;-74
2021/12/20 01:20:54;;;;;;;33.83;6.10;;;2.20;99.90;;;;;;4995755;28;20045;-74
2021/12/20 01:23:21;;;;;;;54.13;7.82;;;2.20;99.90;;;;;;4996388;28;20572;-74
2021/12/20 01:25:48;;;;;;;40.97;6.68;;;2.30;99.90;;;;;;4994356;28;20495;-74
2021/12/20 01:28:15;;;;;;;35.10;6.82;;;2.40;99.90;;;;;;4979455;28;20679;-74
2021/12/20 01:30:42;;;;;;;45.17;7.45;;;2.20;99.90;;;;;;4996062;28;20069;-74
2021/12/20 01:33:11;;;;;;;42.08;6.22;;;2.10;99.90;;;;;;4976520;28;20206;-74
2021/12/20 01:35:39;;;;;;;42.67;6.07;;;2.00;99.90;;;;;;4977286;28;20053;-73
2021/12/20 01:38:08;;;;;;;39.90;6.60;;;2.00;99.90;;;;;;4994488;28;20403;-74
2021/12/20 01:40:35;;;;;;;49.00;6.43;;;2.00;99.90;;;;;;4969393;28;20050;-75
2021/12/20 01:43:04;;;;;;;51.17;7.40;;;1.90;99.90;;;;;;4992913;28;20053;-74
2021/12/20 01:45:31;;;;;;;36.75;6.40;;;1.90;99.90;;;;;;5010303;28;20042;-73
2021/12/20 01:48:08;;;;;;;45.97;8.15;;;1.80;99.90;;;;;;4993820;28;20045;-73
2021/12/20 01:53:24;;;;;;;41.35;7.03;;;1.90;99.90;;;;;;5012974;28;20148;-73
2021/12/20 01:55:53;;;;;;;49.45;8.95;;;1.80;99.90;;;;;;5012321;28;20534;-73
2021/12/20 01:58:21;;;;;;;52.25;7.95;;;1.80;99.90;;;;;;4993774;28;20488;-73
2021/12/20 02:03:37;;;;;;;44.78;7.38;;;1.80;99.90;;;;;;5013936;28;20328;-73
2021/12/20 02:06:10;;;;;;;60.58;8.02;;;1.70;99.90;;;;;;4990368;28;20050;-73
2021/12/20 02:08:37;;;;;;;59.45;9.15;;;1.70;99.90;;;;;;4998345;28;20086;-73
2021/12/20 02:11:10;;;;;;;51.40;8.13;;;1.50;99.90;;;;;;4997536;28;20048;-73
2021/12/20 02:13:39;;;;;;;47.10;8.57;;;1.50;99.90;;;;;;5014230;28;20119;-73
2021/12/20 02:16:07;;;;;;;42.30;7.88;;;1.40;99.90;;;;;;4995598;28;20565;-73
2021/12/20 02:18:35;;;;;;;46.15;9.52;;;1.40;99.90;;;;;;4993715;28;20049;-73
2021/12/20 02:21:02;;;;;;;49.90;8.38;;;1.40;99.90;;;;;;4998161;28;20412;-73
2021/12/20 02:23:29;;;;;;;48.22;8.75;;;1.40;99.90;;;;;;4996845;28;20657;-73
2021/12/20 02:25:56;;;;;;;57.35;9.35;;;1.30;99.90;;;;;;4997702;28;20045;-72
2021/12/20 02:28:24;;;;;;;40.75;8.15;;;1.30;99.90;;;;;;4997222;28;20049;-73
2021/12/20 02:38:53;;;;;;;39.45;7.38;;;1.00;99.90;;;;;;5002094;28;20061;-75
2021/12/20 02:41:32;;;;;;;38.00;6.82;;;1.10;99.90;;;;;;4987345;28;20049;-74
2021/12/20 02:44:15;;;;;;;43.40;9.00;;;0.90;99.90;;;;;;4987292;28;20358;-72
2021/12/20 02:46:51;;;;;;;58.58;9.85;;;1.00;99.90;;;;;;4994938;28;20034;-73
2021/12/20 02:49:29;;;;;;;59.33;9.70;;;1.00;99.90;;;;;;4989649;28;20056;-74
2021/12/20 02:52:22;;;;;;;49.85;8.07;;;1.00;99.90;;;;;;4996619;28;20495;-74
2021/12/20 02:54:57;;;;;;;53.35;8.68;;;1.00;99.90;;;;;;5005511;28;20057;-74
2021/12/20 02:57:35;;;;;;;55.53;9.60;;;1.00;99.90;;;;;;5016097;28;20048;-73
2021/12/20 03:00:22;;;;;;;55.10;9.05;;;1.10;99.90;;;;;;5002513;28;20069;-74
2021/12/20 03:02:55;;;;;;;44.55;8.52;;;1.10;99.90;;;;;;4990718;28;20091;-74
2021/12/20 03:05:30;;;;;;;46.78;8.35;;;0.90;99.90;;;;;;4978769;28;20209;-74
2021/12/20 03:08:06;;;;;;;55.25;8.55;;;0.80;99.90;;;;;;5006379;28;20069;-74
2021/12/20 03:10:42;;;;;;;48.75;9.48;;;0.70;99.90;;;;;;4990351;28;20049;-75
2021/12/20 03:13:17;;;;;;;45.05;9.40;;;0.80;99.90;;;;;;5007277;28;20077;-74
2021/12/20 03:15:52;;;;;;;;;;;0.80;99.90;;;;;;5002638;28;20851;-74
2021/12/20 03:18:25;;;;;;;51.03;9.52;;;0.80;99.90;;;;;;4986162;28;20011;-75
2021/12/20 03:20:58;;;;;;;49.35;9.02;;;0.60;99.90;;;;;;5004595;28;20049;-72
2021/12/20 03:23:40;;;;;;;47.33;9.85;;;0.50;99.90;;;;;;4994695;28;20041;-75
2021/12/20 03:26:20;;;;;;;60.83;12.95;;;0.80;99.90;;;;;;5004472;28;20038;-75
2021/12/20 03:28:53;;;;;;;48.70;9.90;;;0.80;99.90;;;;;;5003896;28;20317;-75
2021/12/20 03:31:24;;;;;;;53.25;10.20;;;0.80;99.90;;;;;;4988573;28;20172;-75
2021/12/20 03:33:57;;;;;;;57.90;10.95;;;0.80;99.90;;;;;;5004812;28;20045;-75
2021/12/20 03:36:29;;;;;;;39.67;8.25;;;0.70;99.90;;;;;;5004353;28;20207;-75
2021/12/20 03:39:07;;;;;;;51.22;9.13;;;0.60;99.90;;;;;;4990806;28;20049;-74
2021/12/20 03:41:38;;;;;;;46.72;9.48;;;0.50;99.90;;;;;;5003689;28;20076;-75
2021/12/20 03:44:09;;;;;;;50.72;10.65;;;0.50;99.90;;;;;;5022342;28;20069;-75
2021/12/20 03:47:05;;;;;;;55.63;12.00;;;0.50;99.90;;;;;;5004132;28;20507;-75
2021/12/20 03:50:03;;;;;;;54.33;10.93;;;0.40;99.90;;;;;;4913351;29;20150;-75
2021/12/20 03:52:39;;;;;;;63.15;12.10;;;0.40;99.90;;;;;;4984945;28;20057;-74
2021/12/20 03:55:08;;;;;;;41.55;10.75;;;0.40;99.90;;;;;;4966614;28;20056;-76
2021/12/20 03:57:41;;;;;;;47.33;10.98;;;0.30;99.90;;;;;;4987472;28;20267;-75
2021/12/20 04:00:17;;;;;;;42.53;10.70;;;0.20;99.90;;;;;;4983996;28;20053;-75
2021/12/20 04:02:55;;;;;;;44.05;11.88;;;0.20;99.90;;;;;;5001417;28;20216;-75
2021/12/20 04:05:29;;;;;;;58.47;11.70;;;0.30;99.90;;;;;;4954420;28;20056;-75
2021/12/20 04:08:12;;;;;;;66.07;12.60;;;0.40;99.90;;;;;;4984881;28;20131;-75
2021/12/20 04:11:25;;;;;;;60.15;12.93;;;0.50;99.90;;;;;;4985575;28;20053;-75
2021/12/20 04:14:03;;;;;;;58.05;13.05;;;0.50;99.90;;;;;;4984895;28;20566;-75
2021/12/20 04:16:50;;;;;;;67.38;13.57;;;0.60;99.90;;;;;;4983608;28;20508;-75
2021/12/20 04:19:21;;;;;;;58.47;12.00;;;0.50;99.90;;;;;;4986223;28;20524;-75
2021/12/20 04:21:55;;;;;;;;;;;0.30;99.90;;;;;;4968142;28;20057;-75
2021/12/20 04:24:24;;;;;;;46.10;9.52;;;0.10;99.90;;;;;;4966437;28;20067;-75
2021/12/20 04:27:11;;;;;;;56.45;10.77;;;0.00;99.90;;;;;;4944567;28;20158;-75
2021/12/20 04:29:42;;;;;;;54.50;10.80;;;-0.10;99.90;;;;;;5006767;22;20050;-70
2021/12/20 04:32:09;;;;;;;53.70;10.02;;;-0.10;99.90;;;;;;5058664;28;20059;-69
2021/12/20 04:34:36;;;;;;;52.15;12.65;;;-0.10;99.90;;;;;;5048128;28;20045;-71
2021/12/20 04:37:04;;;;;;;53.60;10.38;;;-0.10;99.90;;;;;;5031286;28;20045;-70
2021/12/20 04:39:31;;;;;;;60.03;11.57;;;-0.10;99.90;;;;;;5035309;28;20049;-70
2021/12/20 04:42:00;;;;;;;51.97;11.80;;;-0.10;99.90;;;;;;5031751;28;20159;-69
2021/12/20 04:44:27;;;;;;;60.60;11.32;;;0.00;99.90;;;;;;5033802;28;20045;-70
2021/12/20 04:46:53;;;;;;;78.45;12.98;;;-0.10;99.90;;;;;;5032387;28;20126;-70
2021/12/20 04:49:23;;;;;;;66.97;13.85;;;-0.30;99.90;;;;;;5034858;28;20056;-70
2021/12/20 04:51:54;;;;;;;71.00;14.73;;;-0.20;99.90;;;;;;5031844;28;20049;-69
2021/12/20 04:54:21;;;;;;;89.88;16.60;;;-0.10;99.90;;;;;;5034062;28;20110;-74
2021/12/20 04:56:49;;;;;;;101.78;18.10;;;-0.20;99.90;;;;;;5033579;28;20041;-70
2021/12/20 04:59:15;;;;;;;82.38;15.65;;;-0.10;99.90;;;;;;5031798;28;20137;-74
2021/12/20 05:01:42;;;;;;;54.08;13.27;;;-0.30;99.90;;;;;;5033421;28;20055;-73
2021/12/20 05:04:09;;;;;;;73.00;17.17;;;-0.30;99.90;;;;;;5033019;28;20115;-73
2021/12/20 05:06:36;;;;;;;79.28;16.75;;;-0.20;99.90;;;;;;5032344;28;20136;-70
2021/12/20 05:09:05;;;;;;;68.72;14.27;;;-0.30;99.90;;;;;;5032777;28;20071;-70
2021/12/20 05:11:33;;;;;;;67.32;14.88;;;-0.40;99.90;;;;;;5030972;28;20057;-70
2021/12/20 05:14:01;;;;;;;81.30;15.85;;;-0.40;99.90;;;;;;5033925;28;20045;-70
2021/12/20 05:16:29;;;;;;;148.13;22.67;;;-0.40;99.90;;;;;;5029846;28;20511;-69
2021/12/20 05:18:56;;;;;;;104.35;19.83;;;-0.40;99.90;;;;;;5032348;28;20949;-71
2021/12/20 05:21:23;;;;;;;110.97;18.40;;;-0.30;99.90;;;;;;5032601;28;20041;-69
2021/12/20 05:23:52;;;;;;;137.68;20.85;;;-0.40;99.90;;;;;;5035383;28;20049;-70
2021/12/20 05:26:19;;;;;;;183.73;18.58;;;-0.20;99.90;;;;;;5033832;28;20676;-73
2021/12/20 05:28:46;;;;;;;172.90;20.20;;;-0.40;99.90;;;;;;5034924;28;20484;-74
2021/12/20 05:31:13;;;;;;;206.20;24.05;;;-0.50;99.90;;;;;;5033558;28;20521;-74
2021/12/20 05:33:40;;;;;;;230.27;26.45;;;-0.40;99.90;;;;;;5033544;28;20059;-74
2021/12/20 05:36:07;;;;;;;146.70;19.05;;;-0.40;99.90;;;;;;5032633;28;20326;-75
2021/12/20 05:38:47;;;;;;;59.22;14.02;;;-0.50;99.90;;;;;;5018142;28;20150;-74
2021/12/20 05:41:14;;;;;;;43.55;12.70;;;-0.60;99.90;;;;;;5032691;28;20053;-68
2021/12/20 05:43:41;;;;;;;131.70;17.40;;;-0.70;99.90;;;;;;5038236;28;20103;-69
2021/12/20 05:46:11;;;;;;;150.63;17.13;;;-0.80;99.90;;;;;;5038274;28;20084;-69
2021/12/20 05:48:38;;;;;;;131.73;16.25;;;-0.90;99.90;;;;;;5035626;28;20481;-70
2021/12/20 05:51:05;;;;;;;755.60;90.00;;;-0.90;99.90;;;;;;5035950;28;20513;-69
2021/12/20 05:53:32;;;;;;;107.00;16.73;;;-1.00;99.90;;;;;;5037702;28;20057;-70
2021/12/20 05:55:58;;;;;;;186.43;22.55;;;-1.10;99.90;;;;;;5037799;28;20110;-69
2021/12/20 05:58:25;;;;;;;62.15;14.18;;;-1.20;99.90;;;;;;5019444;28;20057;-74
2021/12/20 06:00:52;;;;;;;42.10;11.93;;;-1.20;99.90;;;;;;5037070;28;20041;-74
2021/12/20 06:03:19;;;;;;;36.20;13.05;;;-1.30;99.90;;;;;;5035889;28;20072;-73
2021/12/20 06:05:46;;;;;;;43.35;13.55;;;-1.40;99.90;;;;;;5035870;28;20052;-69
2021/12/20 06:08:12;;;;;;;69.55;16.10;;;-1.30;99.90;;;;;;5034281;28;20136;-68
2021/12/20 06:10:39;;;;;;;123.70;21.75;;;-1.30;99.90;;;;;;5032676;28;20503;-68
2021/12/20 06:13:06;;;;;;;127.97;20.90;;;-1.30;99.90;;;;;;5036846;28;20261;-69
2021/12/20 06:15:33;;;;;;;88.57;19.83;;;-1.30;99.90;;;;;;5034404;28;20526;-68
2021/12/20 06:18:00;;;;;;;124.20;22.42;;;-1.20;99.90;;;;;;5034860;28;20069;-69
2021/12/20 06:20:27;;;;;;;96.95;17.58;;;-1.20;99.90;;;;;;5036314;28;20088;-69
2021/12/20 06:22:54;;;;;;;87.28;18.08;;;-1.10;99.90;;;;;;5033447;28;20315;-69
2021/12/20 06:25:21;;;;;;;212.48;25.88;;;-1.10;99.90;;;;;;5034408;28;20041;-68
2021/12/20 06:27:48;;;;;;;593.95;69.13;;;-1.00;99.90;;;;;;5035268;28;20135;-73
2021/12/20 06:30:15;;;;;;;139.60;23.25;;;-0.90;99.90;;;;;;5034607;28;20095;-74
2021/12/20 06:32:43;;;;;;;118.75;19.98;;;-0.90;99.90;;;;;;5035677;28;20485;-74
2021/12/20 06:35:30;;;;;;;148.75;22.17;;;-0.80;99.90;;;;;;5035137;28;20069;-69
2021/12/20 06:38:01;;;;;;;128.23;23.90;;;-0.70;99.90;;;;;;5034472;28;20044;-69
2021/12/20 06:40:31;;;;;;;237.80;28.13;;;-0.70;99.90;;;;;;5034402;28;20549;-69
2021/12/20 06:42:58;;;;;;;223.60;27.55;;;-0.70;99.90;;;;;;5035916;28;20049;-69
2021/12/20 06:45:26;;;;;;;266.40;35.55;;;-0.50;99.90;;;;;;5032845;28;20118;-74
2021/12/20 06:47:53;;;;;;;242.68;29.75;;;-0.50;99.90;;;;;;5035114;28;20079;-70
2021/12/20 06:50:20;;;;;;;392.20;42.90;;;-0.30;99.90;;;;;;5034444;28;20846;-74
2021/12/20 06:52:46;;;;;;;232.35;35.17;;;-0.30;99.90;;;;;;5035775;28;20049;-74
2021/12/20 06:55:13;;;;;;;226.93;37.33;;;-0.30;99.90;;;;;;5035474;28;20053;-74
2021/12/20 06:57:40;;;;;;;245.00;38.17;;;-0.40;99.90;;;;;;5032655;28;20215;-70
2021/12/20 07:00:09;;;;;;;224.65;32.75;;;-0.40;99.90;;;;;;5032961;28;20049;-71
2021/12/20 07:02:36;;;;;;;398.75;47.08;;;-0.40;99.90;;;;;;5035979;28;20084;-71
2021/12/20 07:05:03;;;;;;;347.45;42.85;;;-0.40;99.90;;;;;;5034540;28;20120;-69
2021/12/20 07:07:34;;;;;;;247.43;33.78;;;-0.30;99.90;;;;;;5032564;28;20063;-71
2021/12/20 07:10:03;;;;;;;213.07;31.58;;;-0.30;99.90;;;;;;5018371;28;20056;-69
2021/12/20 07:12:32;;;;;;;247.32;33.42;;;-0.30;99.90;;;;;;5046789;28;20262;-70
2021/12/20 07:14:59;;;;;;;225.88;32.13;;;-0.40;99.90;;;;;;5033529;28;20052;-69
2021/12/20 07:17:26;;;;;;;371.63;43.38;;;-0.40;99.90;;;;;;5032378;28;20751;-70
2021/12/20 07:19:52;;;;;;;224.25;30.75;;;-0.40;99.90;;;;;;5036423;28;20588;-70
2021/12/20 07:22:19;;;;;;;213.85;31.20;;;-0.40;99.90;;;;;;5050180;28;20032;-70
2021/12/20 07:24:46;;;;;;;232.13;31.88;;;-0.50;99.90;;;;;;5053004;28;20247;-71
2021/12/20 07:27:13;;;;;;;237.23;32.35;;;-0.60;99.90;;;;;;5052375;28;20533;-69
2021/12/20 07:29:41;;;;;;;188.88;26.75;;;-0.60;99.90;;;;;;5049001;28;20578;-70
2021/12/20 07:32:08;;;;;;;204.32;27.92;;;-0.70;99.90;;;;;;5033866;28;20098;-71
2021/12/20 07:34:35;;;;;;;242.02;31.13;;;-0.80;99.90;;;;;;5033613;28;20621;-70
2021/12/20 07:37:02;;;;;;;244.10;32.95;;;-0.80;99.90;;;;;;5032851;28;20087;-69
2021/12/20 07:39:28;;;;;;;222.90;32.05;;;-0.70;99.90;;;;;;5030530;28;20064;-70
2021/12/20 07:41:55;;;;;;;219.00;31.25;;;-0.80;99.90;;;;;;5033784;28;20709;-70
2021/12/20 07:44:23;;;;;;;209.98;28.75;;;-0.70;99.90;;;;;;5033407;28;20052;-70
2021/12/20 07:46:50;;;;;;;142.50;26.58;;;-0.70;99.90;;;;;;5031604;28;20415;-70
2021/12/20 07:49:17;;;;;;;228.25;34.75;;;-0.70;99.90;;;;;;5034426;28;20144;-69
2021/12/20 07:51:44;;;;;;;143.05;30.05;;;-0.70;99.90;;;;;;5020730;28;20123;-69
2021/12/20 07:54:11;;;;;;;317.77;44.70;;;-0.80;99.90;;;;;;5033259;28;20102;-68
2021/12/20 07:56:38;;;;;;;238.65;36.53;;;-0.80;99.90;;;;;;5032698;28;20098;-73
2021/12/20 07:59:05;;;;;;;167.15;32.55;;;-0.90;99.90;;;;;;5035684;28;20052;-73
2021/12/20 08:01:34;;;;;;;273.10;41.80;;;-0.90;99.90;;;;;;5031887;28;20048;-73
2021/12/20 08:04:01;;;;;;;283.95;33.72;;;-0.90;99.90;;;;;;5031154;28;20048;-69
2021/12/20 08:06:28;;;;;;;151.80;29.48;;;-1.00;99.90;;;;;;5030905;28;20033;-69
2021/12/20 08:08:56;;;;;;;269.00;32.88;;;-1.00;99.90;;;;;;5035308;28;20045;-69
2021/12/20 08:11:23;;;;;;;200.05;26.38;;;-1.10;99.90;;;;;;5035047;28;20041;-73
2021/12/20 08:13:50;;;;;;;226.23;27.52;;;-1.10;99.90;;;;;;5035406;28;20049;-73
2021/12/20 08:16:21;;;;;;;207.73;23.23;;;-1.10;99.90;;;;;;5017238;28;20471;-74
2021/12/20 08:18:47;;;;;;;238.07;29.98;;;-1.10;99.90;;;;;;5034813;28;20057;-73
2021/12/20 08:21:15;;;;;;;136.63;22.05;;;-1.10;99.90;;;;;;5033652;28;20296;-72
2021/12/20 08:23:43;;;;;;;198.38;29.70;;;-1.20;99.90;;;;;;5035320;28;20117;-72
2021/12/20 08:26:12;;;;;;;184.77;26.25;;;-1.20;99.90;;;;;;5034799;28;20041;-72
2021/12/20 08:28:40;;;;;;;147.82;22.38;;;-1.20;99.90;;;;;;5034849;28;20072;-71
2021/12/20 08:31:08;;;;;;;180.48;28.58;;;-1.10;99.90;;;;;;5031820;28;20053;-72
2021/12/20 08:33:36;;;;;;;161.80;24.15;;;-1.10;99.90;;;;;;5031503;28;20045;-72
2021/12/20 08:36:06;;;;;;;170.63;27.58;;;-1.10;99.90;;;;;;5038711;28;20603;-72
2021/12/20 08:38:33;;;;;;;189.10;25.83;;;-1.10;99.90;;;;;;5031270;28;20060;-72
2021/12/20 08:41:00;;;;;;;159.13;26.33;;;-1.00;99.90;;;;;;5035082;28;20048;-72
2021/12/20 08:43:28;;;;;;;208.68;30.42;;;-0.90;99.90;;;;;;5034832;28;20071;-72
2021/12/20 08:45:57;;;;;;;195.10;31.63;;;-0.90;99.90;;;;;;5036155;28;20052;-72
2021/12/20 08:48:24;;;;;;;200.25;27.95;;;-0.80;99.90;;;;;;5032502;28;20106;-72
2021/12/20 08:50:52;;;;;;;534.67;68.93;;;-0.80;99.90;;;;;;5034047;28;20061;-72
2021/12/20 08:53:19;;;;;;;358.70;49.70;;;-0.90;99.90;;;;;;5018699;28;20601;-72
2021/12/20 08:55:46;;;;;;;301.65;39.72;;;-0.90;99.90;;;;;;5034264;28;20041;-73
2021/12/20 08:58:13;;;;;;;277.13;34.03;;;-0.90;99.90;;;;;;5034544;28;20498;-73
2021/12/20 09:00:40;;;;;;;489.02;60.53;;;-0.80;99.90;;;;;;5035853;28;20053;-72
2021/12/20 09:03:07;;;;;;;386.35;41.58;;;-0.80;99.90;;;;;;5018547;28;20067;-72
2021/12/20 09:05:35;;;;;;;352.92;44.58;;;-0.80;99.90;;;;;;5030414;28;20045;-72
2021/12/20 09:08:04;;;;;;;361.17;44.50;;;-0.70;99.90;;;;;;5034250;28;20381;-71
2021/12/20 09:10:32;;;;;;;255.63;31.52;;;-0.80;99.90;;;;;;5030463;28;20056;-72
2021/12/20 09:13:00;;;;;;;299.17;38.88;;;-0.80;99.90;;;;;;5034436;28;20049;-72
2021/12/20 09:15:28;;;;;;;398.17;44.95;;;-0.70;99.90;;;;;;5034626;28;20052;-72
2021/12/20 09:17:57;;;;;;;248.50;36.83;;;-0.70;99.90;;;;;;5030768;28;20041;-72
2021/12/20 09:20:26;;;;;;;373.65;45.85;;;-0.60;99.90;;;;;;5037652;28;20036;-72
2021/12/20 09:22:56;;;;;;;375.08;48.90;;;-0.60;99.90;;;;;;5038808;28;20522;-72
2021/12/20 09:25:27;;;;;;;394.25;48.65;;;-0.60;99.90;;;;;;5039217;28;20198;-72
2021/12/20 09:27:58;;;;;;;356.58;45.10;;;-0.60;99.90;;;;;;5032003;28;20037;-73
2021/12/20 09:30:31;;;;;;;382.77;54.60;;;-0.60;99.90;;;;;;5028967;28;20041;-71
2021/12/20 09:33:01;;;;;;;446.70;54.65;;;-0.50;99.90;;;;;;5048635;28;20065;-72
2021/12/20 09:35:33;;;;;;;156.75;24.33;;;-0.40;99.90;;;;;;5045651;28;20578;-73
2021/12/20 09:38:05;;;;;;;256.10;32.30;;;-0.40;99.90;;;;;;5027625;28;20148;-72
2021/12/20 09:40:40;;;;;;;590.20;69.85;;;-0.40;99.90;;;;;;5020011;28;20053;-73
2021/12/20 09:43:16;;;;;;;326.27;47.95;;;-0.40;99.90;;;;;;5025413;28;20215;-73
2021/12/20 09:45:50;;;;;;;565.05;79.45;;;-0.20;99.90;;;;;;5023738;28;20275;-72
2021/12/20 09:48:22;;;;;;;389.98;58.00;;;-0.10;99.90;;;;;;5037624;28;20057;-72
2021/12/20 09:50:53;;;;;;;555.55;72.88;;;-0.10;99.90;;;;;;5016666;28;20336;-72
2021/12/20 09:53:24;;;;;;;394.95;55.05;;;-0.10;99.90;;;;;;5037914;28;20076;-69
2021/12/20 09:55:57;;;;;;;448.65;62.53;;;-0.10;99.90;;;;;;5012608;28;20041;-72
2021/12/20 09:58:26;;;;;;;194.07;29.75;;;-0.10;99.90;;;;;;5028014;28;20059;-72
2021/12/20 10:00:55;;;;;;;307.00;41.33;;;-0.10;99.90;;;;;;5032174;28;20045;-71
2021/12/20 10:03:24;;;;;;;310.58;38.78;;;0.00;99.90;;;;;;5020762;28;20064;-71
2021/12/20 10:05:55;;;;;;;281.33;42.55;;;0.00;99.90;;;;;;5017073;28;20132;-71
2021/12/20 10:08:35;;;;;;;535.65;62.80;;;0.10;99.90;;;;;;5035009;28;20053;-71
2021/12/20 10:11:17;;;;;;;360.95;44.40;;;0.10;99.90;;;;;;5034413;28;20053;-72
2021/12/20 10:13:46;;;;;;;550.15;68.70;;;0.00;99.90;;;;;;5034623;28;20518;-70
2021/12/20 10:16:20;;;;;;;591.63;78.25;;;-0.10;99.90;;;;;;5027758;28;20811;-72
2021/12/20 10:18:50;;;;;;;212.07;34.08;;;-0.10;99.90;;;;;;5020974;28;20072;-71
2021/12/20 10:21:18;;;;;;;171.48;27.75;;;0.00;99.90;;;;;;5032600;28;20060;-71
2021/12/20 10:23:48;;;;;;;263.83;35.95;;;0.10;99.90;;;;;;5036082;28;20075;-71
2021/12/20 10:26:20;;;;;;;435.17;49.17;;;0.10;99.90;;;;;;5030017;28;20131;-71
2021/12/20 10:28:51;;;;;;;297.27;36.55;;;0.10;99.90;;;;;;5030563;28;20041;-72
2021/12/20 10:31:28;;;;;;;256.23;32.17;;;0.10;99.90;;;;;;5015682;23;20049;-69
2021/12/20 10:34:03;;;;;;;232.95;30.75;;;0.20;99.90;;;;;;4969438;28;20227;-69
2021/12/20 10:36:49;;;;;;;262.65;34.13;;;0.30;99.90;;;;;;5032674;28;20096;-68
2021/12/20 10:39:43;;;;;;;217.70;27.85;;;0.30;99.90;;;;;;4936487;28;20050;-69
2021/12/20 10:42:29;;;;;;;269.88;31.92;;;0.20;99.90;;;;;;4963270;28;20039;-70
2021/12/20 10:48:07;;;;;;;522.08;51.38;;;0.10;99.90;;;;;;4968472;28;20053;-71
2021/12/20 10:50:43;;;;;;;319.65;39.47;;;0.20;99.90;;;;;;4963066;28;20110;-71
2021/12/20 10:53:24;;;;;;;399.63;45.90;;;0.30;99.90;;;;;;4954023;28;20039;-71
2021/12/20 10:56:12;;;;;;;432.58;52.10;;;0.30;99.90;;;;;;4954529;28;20046;-71
2021/12/20 10:59:00;;;;;;;364.42;42.97;;;0.40;99.90;;;;;;4966428;28;20423;-70
2021/12/20 11:04:25;;;;;;;412.70;53.67;;;0.50;99.90;;;;;;4973543;28;20337;-70
2021/12/20 11:09:57;;;;;;;650.97;83.00;;;0.40;99.90;;;;;;4967745;28;20536;-74
2021/12/20 11:12:33;;;;;;;644.72;82.72;;;0.20;99.90;;;;;;4972142;28;20050;-74
2021/12/20 11:15:20;;;;;;;508.75;65.00;;;0.20;99.90;;;;;;4972660;28;20043;-75
2021/12/20 11:17:51;;;;;;;800.00;95.80;;;0.30;99.90;;;;;;4970664;28;20463;-74
2021/12/20 11:20:22;;;;;;;446.77;52.65;;;0.40;99.90;;;;;;4949778;28;20709;-74
2021/12/20 11:23:06;;;;;;;214.40;31.58;;;0.50;99.90;;;;;;4965758;28;20559;-75
2021/12/20 11:25:41;;;;;;;371.80;46.67;;;0.50;99.90;;;;;;5035170;28;20100;-75
2021/12/20 11:28:23;;;;;;;509.65;59.60;;;0.40;99.90;;;;;;4959146;28;20074;-73
2021/12/20 11:30:58;;;;;;;494.05;55.03;;;0.50;99.90;;;;;;4961904;28;20043;-73
2021/12/20 11:33:30;;;;;;;316.42;36.17;;;0.30;99.90;;;;;;4962887;23;20051;-74
2021/12/20 11:35:57;;;;;;;472.50;59.45;;;0.40;99.90;;;;;;4968385;28;20047;-74
2021/12/20 11:38:24;;;;;;;98.35;16.70;;;0.40;99.90;;;;;;4948100;28;20129;-74
2021/12/20 11:40:51;;;;;;;419.23;44.50;;;0.60;99.90;;;;;;4948858;28;20100;-74
2021/12/20 11:43:18;;;;;;;252.85;31.95;;;0.70;99.90;;;;;;4935308;28;20043;-74
2021/12/20 11:45:46;;;;;;;177.68;25.02;;;0.60;99.90;;;;;;4945121;28;20150;-73
2021/12/20 11:48:15;;;;;;;338.55;33.38;;;0.70;99.90;;;;;;4930785;28;20051;-73
2021/12/20 11:50:45;;;;;;;463.95;53.60;;;0.70;99.90;;;;;;4939475;28;20169;-74
2021/12/20 11:53:15;;;;;;;228.93;30.45;;;0.70;99.90;;;;;;4932867;29;20059;-73
2021/12/20 11:55:53;;;;;;;434.40;44.15;;;0.70;99.90;;;;;;4931615;28;20743;-74
2021/12/20 11:58:25;;;;;;;533.40;68.93;;;0.60;99.90;;;;;;4933804;28;20130;-74
2021/12/20 12:00:59;;;;;;;321.77;41.80;;;0.60;99.90;;;;;;4930533;29;20043;-74
2021/12/20 12:03:30;;;;;;;523.97;60.22;;;0.60;99.90;;;;;;4916595;29;20051;-74
2021/12/20 12:06:06;;;;;;;161.93;28.00;;;0.40;99.90;;;;;;4932783;28;20049;-74
2021/12/20 12:08:32;;;;;;;92.72;18.25;;;0.50;99.90;;;;;;4931725;28;20047;-74
2021/12/20 12:11:27;;;;;;;168.27;30.45;;;0.70;99.90;;;;;;4932249;28;20090;-74
2021/12/20 12:14:03;;;;;;;194.00;30.75;;;0.70;99.90;;;;;;4927503;29;20244;-74
2021/12/20 12:17:03;;;;;;;417.63;48.50;;;0.70;99.90;;;;;;4927677;29;20097;-74
2021/12/20 12:19:42;;;;;;;108.85;17.35;;;0.60;99.90;;;;;;4930785;29;20055;-74
2021/12/20 12:22:27;;;;;;;353.80;39.20;;;0.60;99.90;;;;;;4931304;28;20055;-74
2021/12/20 12:24:55;;;;;;;131.65;19.73;;;0.60;99.90;;;;;;4933391;28;20245;-74
2021/12/20 12:27:25;;;;;;;161.10;23.13;;;0.60;99.90;;;;;;4931948;28;20054;-74
2021/12/20 12:30:11;;;;;;;220.82;24.58;;;0.60;99.90;;;;;;4932173;29;20719;-74
2021/12/20 12:32:44;;;;;;;342.05;37.35;;;0.50;99.90;;;;;;4914078;29;20394;-74
2021/12/20 12:35:39;;;;;;;187.45;22.95;;;0.40;99.90;;;;;;4939526;28;20043;-74
2021/12/20 12:38:18;;;;;;;147.63;20.92;;;0.60;99.90;;;;;;5024825;28;20057;-74
2021/12/20 12:41:07;;;;;;;761.92;86.03;;;0.60;99.90;;;;;;5026425;28;20045;-73
2021/12/20 12:43:56;;;;;;;205.55;28.52;;;0.70;99.90;;;;;;5021816;28;20049;-74
2021/12/20 12:46:35;;;;;;;319.75;32.65;;;0.70;99.90;;;;;;4984292;28;20054;-73
2021/12/20 12:49:31;;;;;;;281.98;31.58;;;0.70;99.90;;;;;;4951056;28;20050;-73
2021/12/20 12:52:16;;;;;;;670.20;87.43;;;0.60;99.90;;;;;;4950679;28;20077;-74
2021/12/20 12:55:09;;;;;;;117.70;21.15;;;0.60;99.90;;;;;;4949297;28;20055;-74
2021/12/20 12:57:39;;;;;;;184.52;25.73;;;0.60;99.90;;;;;;4968969;28;20226;-74
2021/12/20 13:00:11;;;;;;;272.05;37.47;;;0.50;99.90;;;;;;4950711;28;20084;-74
2021/12/20 13:02:40;;;;;;;215.48;32.22;;;0.50;99.90;;;;;;4951489;28;20086;-74
2021/12/20 13:05:23;;;;;;;154.75;26.50;;;0.50;99.90;;;;;;4933218;28;20054;-74
2021/12/20 13:07:58;;;;;;;555.97;76.35;;;0.60;99.90;;;;;;4952776;28;20103;-73
2021/12/20 13:10:33;;;;;;;257.30;39.85;;;0.70;99.90;;;;;;4948220;28;20055;-74
2021/12/20 13:13:14;;;;;;;116.55;33.03;;;0.80;99.90;;;;;;4934899;28;20059;-74
2021/12/20 13:18:20;;;;;;;120.80;33.90;;;1.10;99.90;;;;;;4949739;28;19926;-74
2021/12/20 13:21:14;;;;;;;88.13;19.90;;;1.10;99.90;;;;;;4950580;28;20043;-74